createdAt,value
2023-05-19T00:02:05.500Z,98116.00
2023-05-19T00:04:35.420Z,98105.00
2023-05-19T00:07:05.586Z,98103.00
2023-05-19T00:09:34.751Z,98108.00
2023-05-19T00:12:05.282Z,98116.00
2023-05-19T00:14:34.200Z,98113.00
2023-05-19T00:17:03.080Z,98114.00
2023-05-19T00:19:32.410Z,98114.00
2023-05-19T00:22:00.775Z,98093.00
2023-05-19T00:24:29.527Z,98104.00
2023-05-19T00:26:57.680Z,98093.00
2023-05-19T00:29:27.188Z,98090.00
2023-05-19T00:31:55.449Z,98102.00
2023-05-19T00:34:23.661Z,98106.00
2023-05-19T00:36:52.018Z,98090.00
2023-05-19T00:39:20.364Z,98097.00
2023-05-19T00:41:49.089Z,98082.00
2023-05-19T00:44:17.272Z,98077.00
2023-05-19T00:46:47.038Z,98077.00
2023-05-19T00:49:15.405Z,98092.00
2023-05-19T00:51:43.889Z,98080.00
2023-05-19T00:54:12.339Z,98091.00
2023-05-19T00:56:40.855Z,98083.00
2023-05-19T00:59:09.510Z,98071.00
2023-05-19T01:01:38.163Z,98078.00
2023-05-19T01:04:10.541Z,98074.00
2023-05-19T01:06:39.076Z,98070.00
2023-05-19T01:09:07.525Z,98081.00
2023-05-19T01:11:36.242Z,98064.00
2023-05-19T01:14:04.515Z,98070.00
2023-05-19T01:16:41.819Z,98058.00
2023-05-19T01:19:38.633Z,98054.00
2023-05-19T01:22:31.207Z,98049.00
2023-05-19T01:25:46.872Z,98036.00
2023-05-19T01:28:41.175Z,98050.00
2023-05-19T01:31:12.949Z,98056.00
2023-05-19T01:33:45.101Z,98056.00
2023-05-19T01:36:15.371Z,98051.00
2023-05-19T01:38:46.559Z,98052.00
2023-05-19T01:41:17.297Z,98054.00
2023-05-19T01:43:46.881Z,98046.00
2023-05-19T01:46:17.248Z,98059.00
2023-05-19T01:48:46.724Z,98056.00
2023-05-19T01:51:15.149Z,98053.00
2023-05-19T01:53:44.630Z,98059.00
2023-05-19T01:56:20.112Z,98060.00
2023-05-19T01:58:54.085Z,98057.00
2023-05-19T02:01:35.645Z,98060.00
2023-05-19T02:04:21.469Z,98042.00
2023-05-19T02:07:04.553Z,98049.00
2023-05-19T02:09:41.911Z,98052.00
2023-05-19T02:12:18.225Z,98061.00
2023-05-19T02:14:55.913Z,98063.00
2023-05-19T02:17:29.404Z,98074.00
2023-05-19T02:19:58.225Z,98064.00
2023-05-19T02:22:26.797Z,98063.00
2023-05-19T02:24:56.531Z,98044.00
2023-05-19T02:27:26.258Z,98048.00
2023-05-19T02:29:54.691Z,98048.00
2023-05-19T02:32:23.013Z,98060.00
2023-05-19T02:34:53.300Z,98046.00
2023-05-19T02:37:23.813Z,98043.00
2023-05-19T02:39:52.179Z,98048.00
2023-05-19T02:42:20.398Z,98034.00
2023-05-19T02:44:50.289Z,98033.00
2023-05-19T02:47:19.317Z,98028.00
2023-05-19T02:49:47.632Z,98029.00
2023-05-19T02:52:18.388Z,98022.00
2023-05-19T02:54:46.723Z,98028.00
2023-05-19T02:57:14.972Z,98036.00
2023-05-19T02:59:43.310Z,98031.00
2023-05-19T03:02:11.738Z,98031.00
2023-05-19T03:04:41.561Z,98034.00
2023-05-19T03:07:10.998Z,98031.00
2023-05-19T03:09:41.093Z,98025.00
2023-05-19T03:12:09.533Z,98041.00
2023-05-19T03:14:39.116Z,98036.00
2023-05-19T03:17:08.676Z,98035.00
2023-05-19T03:19:36.997Z,98035.00
2023-05-19T03:22:06.320Z,98044.00
2023-05-19T03:24:36.279Z,98036.00
2023-05-19T03:27:06.781Z,98048.00
2023-05-19T03:29:34.988Z,98044.00
2023-05-19T03:32:04.064Z,98034.00
2023-05-19T03:34:32.616Z,98048.00
2023-05-19T03:37:00.927Z,98046.00
2023-05-19T03:39:29.197Z,98049.00
2023-05-19T03:41:57.417Z,98054.00
2023-05-19T03:44:27.020Z,98045.00
2023-05-19T03:46:55.436Z,98038.00
2023-05-19T03:49:56.045Z,98059.00
2023-05-19T03:52:49.354Z,98043.00
2023-05-19T03:55:29.831Z,98059.00
2023-05-19T03:57:58.335Z,98057.00
2023-05-19T04:00:27.948Z,98047.00
2023-05-19T04:02:59.282Z,98047.00
2023-05-19T04:05:27.657Z,98050.00
2023-05-19T04:07:55.889Z,98057.00
2023-05-19T04:10:24.973Z,98060.00
2023-05-19T04:12:55.795Z,98060.00
2023-05-19T04:15:24.031Z,98065.00
2023-05-19T04:17:53.628Z,98046.00
2023-05-19T04:20:22.096Z,98070.00
2023-05-19T04:22:52.195Z,98065.00
2023-05-19T04:25:21.041Z,98058.00
2023-05-19T04:27:49.992Z,98069.00
2023-05-19T04:30:22.482Z,98067.00
2023-05-19T04:32:53.310Z,98064.00
2023-05-19T04:35:22.494Z,98056.00
2023-05-19T04:37:54.277Z,98066.00
2023-05-19T04:40:26.852Z,98051.00
2023-05-19T04:42:55.076Z,98063.00
2023-05-19T04:45:25.789Z,98063.00
2023-05-19T04:47:58.563Z,98061.00
2023-05-19T04:50:28.618Z,98064.00
2023-05-19T04:52:59.186Z,98047.00
2023-05-19T04:55:28.131Z,98044.00
2023-05-19T04:57:56.385Z,98050.00
2023-05-19T05:00:25.388Z,98054.00
2023-05-19T05:03:05.138Z,98056.00
2023-05-19T05:05:34.095Z,98043.00
2023-05-19T05:08:03.256Z,98054.00
2023-05-19T05:10:36.597Z,98055.00
2023-05-19T05:13:05.666Z,98050.00
2023-05-19T05:15:35.542Z,98045.00
2023-05-19T05:18:07.070Z,98042.00
2023-05-19T05:20:37.055Z,98056.00
2023-05-19T05:23:06.766Z,98045.00
2023-05-19T05:25:36.340Z,98053.00
2023-05-19T05:28:05.924Z,98063.00
2023-05-19T05:30:36.723Z,98045.00
2023-05-19T05:33:07.878Z,98051.00
2023-05-19T05:35:39.575Z,98040.00
2023-05-19T05:38:11.391Z,98054.00
2023-05-19T05:40:39.797Z,98040.00
2023-05-19T05:43:09.147Z,98042.00
2023-05-19T05:45:43.229Z,98053.00
2023-05-19T05:48:14.454Z,98058.00
2023-05-19T05:50:45.302Z,98053.00
2023-05-19T05:53:20.210Z,98055.00
2023-05-19T05:55:51.632Z,98048.00
2023-05-19T05:58:21.252Z,98061.00
2023-05-19T06:00:51.457Z,98048.00
2023-05-19T06:03:24.583Z,98039.00
2023-05-19T06:05:53.741Z,98043.00
2023-05-19T06:08:22.113Z,98051.00
2023-05-19T06:10:50.412Z,98062.00
2023-05-19T06:13:22.578Z,98047.00
2023-05-19T06:15:51.026Z,98046.00
2023-05-19T06:18:26.917Z,98040.00
2023-05-19T06:20:55.337Z,98033.00
2023-05-19T06:23:23.901Z,98047.00
2023-05-19T06:25:52.458Z,98042.00
2023-05-19T06:28:20.968Z,98028.00
2023-05-19T06:30:50.694Z,98038.00
2023-05-19T06:33:28.968Z,98037.00
2023-05-19T06:35:58.009Z,98045.00
2023-05-19T06:38:26.570Z,98053.00
2023-05-19T06:40:54.738Z,98043.00
2023-05-19T06:43:22.934Z,98052.00
2023-05-19T06:45:59.305Z,98045.00
2023-05-19T06:48:29.323Z,98042.00
2023-05-19T06:50:57.721Z,98045.00
2023-05-19T06:53:26.438Z,98046.00
2023-05-19T06:56:00.042Z,98039.00
2023-05-19T06:58:33.079Z,98042.00
2023-05-19T07:01:03.690Z,98035.00
2023-05-19T07:03:38.604Z,98042.00
2023-05-19T07:06:08.374Z,98041.00
2023-05-19T07:08:38.158Z,98028.00
2023-05-19T07:11:08.638Z,98042.00
2023-05-19T07:13:36.881Z,98044.00
2023-05-19T07:16:06.332Z,98031.00
2023-05-19T07:18:35.326Z,98027.00
2023-05-19T07:21:05.572Z,98029.00
2023-05-19T07:23:33.900Z,98021.00
2023-05-19T07:26:03.386Z,98024.00
2023-05-19T07:28:31.669Z,98007.00
2023-05-19T07:30:59.853Z,98025.00
2023-05-19T07:33:28.142Z,98011.00
2023-05-19T07:35:56.390Z,98012.00
2023-05-19T07:38:25.893Z,98023.00
2023-05-19T07:40:54.123Z,97996.00
2023-05-19T07:43:22.300Z,98011.00
2023-05-19T07:45:50.559Z,98006.00
2023-05-19T07:48:19.193Z,97998.00
2023-05-19T07:50:47.706Z,98002.00
2023-05-19T07:53:16.675Z,98013.00
2023-05-19T07:55:46.402Z,98004.00
2023-05-19T07:58:14.637Z,97994.00
2023-05-19T08:00:43.651Z,98001.00
2023-05-19T08:03:11.969Z,97995.00
2023-05-19T08:05:40.554Z,98001.00
2023-05-19T08:08:08.798Z,97988.00
2023-05-19T08:10:37.065Z,97998.00
2023-05-19T08:13:06.610Z,98001.00
2023-05-19T08:15:34.883Z,98007.00
2023-05-19T08:18:05.805Z,97994.00
2023-05-19T08:20:34.303Z,97988.00
2023-05-19T08:23:02.718Z,98008.00
2023-05-19T08:25:31.244Z,97994.00
2023-05-19T08:27:59.487Z,97986.00
2023-05-19T08:30:29.073Z,97993.00
2023-05-19T08:32:57.290Z,97990.00
2023-05-19T08:35:25.912Z,97988.00
2023-05-19T08:37:54.314Z,97996.00
2023-05-19T08:40:23.999Z,97994.00
2023-05-19T08:42:52.434Z,97987.00
2023-05-19T08:45:20.932Z,97984.00
2023-05-19T08:50:27.531Z,97988.00
2023-05-19T08:53:04.880Z,97973.00
2023-05-19T08:55:42.165Z,97981.00
2023-05-19T08:58:12.158Z,97980.00
2023-05-19T09:00:40.922Z,97971.00
2023-05-19T09:03:22.829Z,97972.00
2023-05-19T09:05:52.622Z,97967.00
2023-05-19T09:08:20.909Z,97980.00
2023-05-19T09:10:49.222Z,97978.00
2023-05-19T09:13:17.415Z,97979.00
2023-05-19T09:15:47.011Z,97981.00
2023-05-19T09:18:16.658Z,97963.00
2023-05-19T09:20:47.043Z,97985.00
2023-05-19T09:23:16.920Z,97981.00
2023-05-19T09:25:49.568Z,97973.00
2023-05-19T09:28:26.286Z,97977.00
2023-05-19T09:31:02.022Z,97983.00
2023-05-19T09:33:34.560Z,97976.00
2023-05-19T09:36:03.519Z,97975.00
2023-05-19T09:38:31.791Z,97972.00
2023-05-19T09:41:02.428Z,97986.00
2023-05-19T09:43:31.720Z,97980.00
2023-05-19T09:46:02.275Z,97969.00
2023-05-19T09:48:31.963Z,97955.00
2023-05-19T09:51:02.393Z,97965.00
2023-05-19T09:53:32.470Z,97972.00
2023-05-19T09:56:03.474Z,97962.00
2023-05-19T09:58:35.084Z,97963.00
2023-05-19T10:01:04.945Z,97959.00
2023-05-19T10:03:35.656Z,97960.00
2023-05-19T10:06:07.397Z,97949.00
2023-05-19T10:08:35.921Z,97953.00
2023-05-19T10:11:06.478Z,97945.00
2023-05-19T10:13:38.508Z,97940.00
2023-05-19T10:16:09.447Z,97940.00
2023-05-19T10:18:40.521Z,97944.00
2023-05-19T10:21:10.418Z,97941.00
2023-05-19T10:23:39.679Z,97937.00
2023-05-19T10:26:09.420Z,97922.00
2023-05-19T10:28:41.996Z,97929.00
2023-05-19T10:31:17.996Z,97919.00
2023-05-19T10:34:15.191Z,97915.00
2023-05-19T10:36:51.110Z,97917.00
2023-05-19T10:39:27.809Z,97908.00
2023-05-19T10:42:11.027Z,97908.00
2023-05-19T10:44:59.585Z,97918.00
2023-05-19T10:47:28.654Z,97916.00
2023-05-19T10:50:01.817Z,97911.00
2023-05-19T10:52:32.892Z,97916.00
2023-05-19T10:55:02.755Z,97916.00
2023-05-19T10:57:33.000Z,97918.00
2023-05-19T11:00:11.282Z,97914.00
2023-05-19T11:02:42.369Z,97915.00
2023-05-19T11:05:16.304Z,97915.00
2023-05-19T11:07:50.975Z,97923.00
2023-05-19T11:10:24.839Z,97912.00
2023-05-19T11:12:53.598Z,97909.00
2023-05-19T11:15:27.608Z,97907.00
2023-05-19T11:17:56.824Z,97906.00
2023-05-19T11:20:29.753Z,97899.00
2023-05-19T11:23:08.628Z,97905.00
2023-05-19T11:25:45.024Z,97908.00
2023-05-19T11:28:14.232Z,97903.00
2023-05-19T11:30:45.443Z,97905.00
2023-05-19T11:33:14.750Z,97897.00
2023-05-19T11:35:47.171Z,97908.00
2023-05-19T11:38:16.223Z,97898.00
2023-05-19T11:40:45.361Z,97896.00
2023-05-19T11:43:13.547Z,97896.00
2023-05-19T11:45:41.914Z,97888.00
2023-05-19T11:48:13.259Z,97871.00
2023-05-19T11:50:44.975Z,97875.00
2023-05-19T11:53:16.344Z,97878.00
2023-05-19T11:55:47.364Z,97880.00
2023-05-19T11:58:16.283Z,97876.00
2023-05-19T12:00:47.892Z,97875.00
2023-05-19T12:03:17.401Z,97857.00
2023-05-19T12:05:50.246Z,97851.00
2023-05-19T12:08:19.397Z,97848.00
2023-05-19T12:10:50.861Z,97850.00
2023-05-19T12:13:20.026Z,97850.00
2023-05-19T12:15:48.287Z,97851.00
2023-05-19T12:18:16.536Z,97853.00
2023-05-19T12:20:46.388Z,97862.00
2023-05-19T12:23:15.795Z,97848.00
2023-05-19T12:25:44.149Z,97843.00
2023-05-19T12:28:12.352Z,97840.00
2023-05-19T12:30:41.433Z,97837.00
2023-05-19T12:33:10.124Z,97840.00
2023-05-19T12:35:39.063Z,97844.00
2023-05-19T12:38:09.324Z,97843.00
2023-05-19T12:40:42.142Z,97848.00
2023-05-19T12:43:20.231Z,97828.00
2023-05-19T12:45:48.727Z,97843.00
2023-05-19T12:48:17.242Z,97830.00
2023-05-19T12:50:46.217Z,97836.00
2023-05-19T12:53:16.407Z,97835.00
2023-05-19T12:55:46.756Z,97821.00
2023-05-19T12:58:17.076Z,97825.00
2023-05-19T13:00:48.452Z,97819.00
2023-05-19T13:03:18.883Z,97818.00
2023-05-19T13:05:49.732Z,97823.00
2023-05-19T13:08:21.459Z,97815.00
2023-05-19T13:10:50.084Z,97819.00
2023-05-19T13:13:19.273Z,97820.00
2023-05-19T13:15:49.398Z,97827.00
2023-05-19T13:18:18.652Z,97824.00
2023-05-19T13:20:49.951Z,97818.00
2023-05-19T13:23:19.728Z,97812.00
2023-05-19T13:25:48.063Z,97806.00
2023-05-19T13:28:16.377Z,97795.00
2023-05-19T13:30:45.376Z,97807.00
2023-05-19T13:33:13.801Z,97801.00
2023-05-19T13:35:42.133Z,97801.00
2023-05-19T13:38:11.212Z,97798.00
2023-05-19T13:40:41.492Z,97794.00
2023-05-19T13:43:10.109Z,97801.00
2023-05-19T13:45:38.725Z,97793.00
2023-05-19T13:48:08.385Z,97808.00
2023-05-19T13:50:36.726Z,97800.00
2023-05-19T13:53:05.133Z,97807.00
2023-05-19T13:55:33.883Z,97798.00
2023-05-19T13:58:04.380Z,97808.00
2023-05-19T14:00:33.445Z,97796.00
2023-05-19T14:03:02.252Z,97799.00
2023-05-19T14:05:31.278Z,97798.00
2023-05-19T14:08:00.985Z,97790.00
2023-05-19T14:10:29.348Z,97799.00
2023-05-19T14:15:38.448Z,97790.00
2023-05-19T14:18:07.372Z,97793.00
2023-05-19T14:20:36.459Z,97778.00
2023-05-19T14:23:04.984Z,97776.00
2023-05-19T14:25:34.679Z,97782.00
2023-05-19T14:28:03.116Z,97769.00
2023-05-19T14:30:31.540Z,97773.00
2023-05-19T14:33:01.409Z,97772.00
2023-05-19T14:35:29.749Z,97781.00
2023-05-19T14:37:58.055Z,97773.00
2023-05-19T14:40:26.296Z,97778.00
2023-05-19T14:42:54.597Z,97774.00
2023-05-19T14:45:22.804Z,97760.00
2023-05-19T14:47:51.105Z,97756.00
2023-05-19T14:50:20.892Z,97756.00
2023-05-19T14:52:49.109Z,97757.00
2023-05-19T14:55:17.584Z,97746.00
2023-05-19T14:57:45.971Z,97760.00
2023-05-19T15:00:15.848Z,97753.00
2023-05-19T15:02:44.362Z,97752.00
2023-05-19T15:05:12.759Z,97756.00
2023-05-19T15:07:42.403Z,97765.00
2023-05-19T15:10:11.233Z,97767.00
2023-05-19T15:12:39.674Z,97762.00
2023-05-19T15:15:09.696Z,97760.00
2023-05-19T15:17:37.988Z,97759.00
2023-05-19T15:20:07.933Z,97755.00
2023-05-19T15:22:36.406Z,97758.00
2023-05-19T15:25:07.141Z,97758.00
2023-05-19T15:27:36.472Z,97748.00
2023-05-19T15:30:05.209Z,97746.00
2023-05-19T15:32:33.728Z,97743.00
2023-05-19T15:35:01.947Z,97746.00
2023-05-19T15:37:30.149Z,97744.00
2023-05-19T15:39:58.462Z,97756.00
2023-05-19T15:42:28.220Z,97760.00
2023-05-19T15:44:56.440Z,97760.00
2023-05-19T15:47:24.759Z,97762.00
2023-05-19T15:49:53.070Z,97760.00
2023-05-19T15:52:21.383Z,97770.00
2023-05-19T15:54:49.685Z,97769.00
2023-05-19T15:57:18.044Z,97774.00
2023-05-19T15:59:47.640Z,97759.00
2023-05-19T16:02:16.388Z,97758.00
2023-05-19T16:04:44.789Z,97753.00
2023-05-19T16:07:12.982Z,97749.00
2023-05-19T16:09:41.345Z,97751.00
2023-05-19T16:12:09.608Z,97748.00
2023-05-19T16:14:37.829Z,97749.00
2023-05-19T16:17:11.388Z,97747.00
2023-05-19T16:19:39.665Z,97743.00
2023-05-19T16:22:07.951Z,97743.00
2023-05-19T16:24:36.214Z,97735.00
2023-05-19T16:27:04.971Z,97745.00
2023-05-19T16:29:33.265Z,97731.00
2023-05-19T16:32:01.757Z,97726.00
2023-05-19T16:34:31.445Z,97740.00
2023-05-19T16:36:59.683Z,97731.00
2023-05-19T16:39:27.901Z,97743.00
2023-05-19T16:41:56.153Z,97745.00
2023-05-19T16:44:24.573Z,97731.00
2023-05-19T16:46:52.805Z,97732.00
2023-05-19T16:49:21.176Z,97732.00
2023-05-19T16:51:52.715Z,97744.00
2023-05-19T16:54:21.889Z,97740.00
2023-05-19T16:56:51.457Z,97738.00
2023-05-19T16:59:19.677Z,97725.00
2023-05-19T17:01:48.032Z,97739.00
2023-05-19T17:04:16.347Z,97738.00
2023-05-19T17:06:46.091Z,97727.00
2023-05-19T17:09:15.689Z,97722.00
2023-05-19T17:11:43.948Z,97732.00
2023-05-19T17:14:12.638Z,97728.00
2023-05-19T17:16:40.838Z,97740.00
2023-05-19T17:19:09.067Z,97729.00
2023-05-19T17:21:37.444Z,97743.00
2023-05-19T17:24:06.484Z,97745.00
2023-05-19T17:26:36.011Z,97747.00
2023-05-19T17:29:04.274Z,97736.00
2023-05-19T17:31:32.514Z,97749.00
2023-05-19T17:34:00.735Z,97736.00
2023-05-19T17:36:29.074Z,97745.00
2023-05-19T17:38:57.284Z,97750.00
2023-05-19T17:41:25.524Z,97739.00
2023-05-19T17:43:55.104Z,97752.00
2023-05-19T17:46:23.311Z,97736.00
2023-05-19T17:48:51.545Z,97735.00
2023-05-19T17:51:21.099Z,97742.00
2023-05-19T17:53:50.127Z,97742.00
2023-05-19T17:56:19.834Z,97741.00
2023-05-19T17:58:49.358Z,97741.00
2023-05-19T18:01:20.527Z,97744.00
2023-05-19T18:03:50.076Z,97740.00
2023-05-19T18:06:19.725Z,97744.00
2023-05-19T18:08:50.730Z,97743.00
2023-05-19T18:11:19.449Z,97757.00
2023-05-19T18:13:47.645Z,97745.00
2023-05-19T18:16:15.957Z,97743.00
2023-05-19T18:18:50.187Z,97736.00
2023-05-19T18:21:18.896Z,97735.00
2023-05-19T18:23:48.192Z,97739.00
2023-05-19T18:26:16.584Z,97738.00
2023-05-19T18:28:44.828Z,97745.00
2023-05-19T18:31:19.076Z,97737.00
2023-05-19T18:33:49.307Z,97742.00
2023-05-19T18:36:17.623Z,97737.00
2023-05-19T18:38:47.386Z,97731.00
2023-05-19T18:41:15.703Z,97745.00
2023-05-19T18:43:44.250Z,97732.00
2023-05-19T18:46:13.735Z,97746.00
2023-05-19T18:48:42.451Z,97737.00
2023-05-19T18:51:14.223Z,97739.00
2023-05-19T18:53:42.656Z,97742.00
2023-05-19T18:56:12.715Z,97749.00
2023-05-19T18:58:41.042Z,97737.00
2023-05-19T19:01:09.369Z,97744.00
2023-05-19T19:03:37.689Z,97758.00
2023-05-19T19:06:06.055Z,97762.00
2023-05-19T19:08:35.651Z,97762.00
2023-05-19T19:11:05.120Z,97776.00
2023-05-19T19:13:33.427Z,97770.00
2023-05-19T19:16:01.694Z,97770.00
2023-05-19T19:18:30.230Z,97777.00
2023-05-19T19:20:59.631Z,97788.00
2023-05-19T19:23:27.899Z,97775.00
2023-05-19T19:25:57.517Z,97776.00
2023-05-19T19:28:25.781Z,97777.00
2023-05-19T19:30:54.247Z,97782.00
2023-05-19T19:33:22.607Z,97773.00
2023-05-19T19:35:51.042Z,97778.00
2023-05-19T19:38:19.379Z,97789.00
2023-05-19T19:40:47.640Z,97782.00
2023-05-19T19:43:17.352Z,97780.00
2023-05-19T19:45:45.847Z,97791.00
2023-05-19T19:48:14.168Z,97781.00
2023-05-19T19:50:42.369Z,97791.00
2023-05-19T19:53:10.881Z,97780.00
2023-05-19T19:55:39.331Z,97783.00
2023-05-19T19:58:07.743Z,97780.00
2023-05-19T20:00:37.393Z,97784.00
2023-05-19T20:03:06.082Z,97776.00
2023-05-19T20:05:34.613Z,97783.00
2023-05-19T20:08:02.787Z,97797.00
2023-05-19T20:10:31.036Z,97790.00
2023-05-19T20:12:59.756Z,97783.00
2023-05-19T20:15:28.096Z,97771.00
2023-05-19T20:17:57.803Z,97780.00
2023-05-19T20:20:26.134Z,97784.00
2023-05-19T20:22:54.466Z,97779.00
2023-05-19T20:25:22.728Z,97781.00
2023-05-19T20:27:50.958Z,97778.00
2023-05-19T20:30:19.732Z,97780.00
2023-05-19T20:32:48.167Z,97783.00
2023-05-19T20:35:18.016Z,97776.00
2023-05-19T20:37:47.926Z,97788.00
2023-05-19T20:40:16.454Z,97791.00
2023-05-19T20:42:44.714Z,97778.00
2023-05-19T20:45:13.185Z,97794.00
2023-05-19T20:47:41.525Z,97786.00
2023-05-19T20:50:10.225Z,97785.00
2023-05-19T20:52:40.007Z,97777.00
2023-05-19T20:55:09.168Z,97785.00
2023-05-19T20:57:37.564Z,97778.00
2023-05-19T21:00:07.495Z,97790.00
2023-05-19T21:02:36.062Z,97786.00
2023-05-19T21:05:05.354Z,97787.00
2023-05-19T21:07:33.895Z,97783.00
2023-05-19T21:10:03.643Z,97791.00
2023-05-19T21:12:34.261Z,97792.00
2023-05-19T21:15:03.733Z,97780.00
2023-05-19T21:17:32.165Z,97777.00
2023-05-19T21:20:01.118Z,97779.00
2023-05-19T21:22:29.680Z,97778.00
2023-05-19T21:24:58.274Z,97774.00
2023-05-19T21:27:27.973Z,97771.00
2023-05-19T21:29:56.596Z,97772.00
2023-05-19T21:32:24.951Z,97776.00
2023-05-19T21:34:53.281Z,97771.00
2023-05-19T21:37:21.659Z,97769.00
2023-05-19T21:39:50.105Z,97769.00
2023-05-19T21:42:18.611Z,97755.00
2023-05-19T21:44:48.234Z,97756.00
2023-05-19T21:47:17.090Z,97758.00
2023-05-19T21:49:45.464Z,97757.00
2023-05-19T21:52:13.777Z,97762.00
2023-05-19T21:54:41.990Z,97756.00
2023-05-19T21:57:11.155Z,97759.00
2023-05-19T21:59:39.777Z,97749.00
2023-05-19T22:02:09.996Z,97765.00
2023-05-19T22:04:38.583Z,97751.00
2023-05-19T22:07:07.816Z,97760.00
2023-05-19T22:09:36.099Z,97754.00
2023-05-19T22:12:04.525Z,97756.00
2023-05-19T22:14:32.771Z,97750.00
2023-05-19T22:17:01.018Z,97738.00
2023-05-19T22:19:30.738Z,97749.00
2023-05-19T22:22:09.661Z,97741.00
2023-05-19T22:24:42.415Z,97737.00
2023-05-19T22:27:11.580Z,97746.00
2023-05-19T22:29:39.853Z,97747.00
2023-05-19T22:32:11.971Z,97728.00
2023-05-19T22:34:41.810Z,97737.00
2023-05-19T22:37:10.113Z,97733.00
2023-05-19T22:39:39.189Z,97723.00
2023-05-19T22:42:07.643Z,97721.00
2023-05-19T22:44:35.878Z,97714.00
2023-05-19T22:47:04.116Z,97718.00
2023-05-19T22:49:32.292Z,97718.00
2023-05-19T22:52:02.303Z,97721.00
2023-05-19T22:54:30.883Z,97717.00
2023-05-19T22:56:59.145Z,97720.00
2023-05-19T22:59:27.402Z,97712.00
2023-05-19T23:01:55.942Z,97714.00
2023-05-19T23:04:24.214Z,97726.00
2023-05-19T23:06:52.710Z,97717.00
2023-05-19T23:09:22.322Z,97720.00
2023-05-19T23:11:50.501Z,97709.00
2023-05-19T23:14:18.915Z,97709.00
2023-05-19T23:16:47.321Z,97712.00
2023-05-19T23:19:16.998Z,97708.00
2023-05-19T23:21:45.891Z,97714.00
2023-05-19T23:24:14.192Z,97700.00
2023-05-19T23:26:44.197Z,97714.00
2023-05-19T23:29:13.687Z,97697.00
2023-05-19T23:31:42.706Z,97707.00
2023-05-19T23:34:11.381Z,97695.00
2023-05-19T23:36:39.591Z,97701.00
2023-05-19T23:39:07.857Z,97693.00
2023-05-19T23:41:36.614Z,97699.00
2023-05-19T23:44:06.600Z,97687.00
2023-05-19T23:46:34.842Z,97695.00
2023-05-19T23:49:03.176Z,97698.00
2023-05-19T23:51:31.635Z,97700.00
2023-05-19T23:54:00.140Z,97694.00
2023-05-19T23:56:28.422Z,97686.00
2023-05-19T23:58:56.624Z,97700.00
